createdAt,value
2018-08-10T00:02:08.816Z,95.50
2018-08-10T00:04:37.108Z,95.20
2018-08-10T00:07:05.380Z,94.10
2018-08-10T00:09:33.741Z,93.90
2018-08-10T00:12:01.916Z,93.00
2018-08-10T00:14:30.181Z,92.80
2018-08-10T00:16:58.388Z,92.70
2018-08-10T00:19:26.616Z,92.20
2018-08-10T00:21:54.938Z,92.10
2018-08-10T00:24:23.121Z,91.80
2018-08-10T00:26:51.375Z,92.50
2018-08-10T00:29:19.575Z,92.40
2018-08-10T00:31:47.800Z,93.50
2018-08-10T00:34:16.012Z,93.10
2018-08-10T00:36:44.174Z,93.20
2018-08-10T00:39:13.625Z,93.70
2018-08-10T00:41:42.424Z,93.60
2018-08-10T00:44:10.688Z,94.40
2018-08-10T00:46:38.928Z,94.10
2018-08-10T00:49:07.246Z,94.60
2018-08-10T00:51:35.504Z,95.10
2018-08-10T00:54:03.852Z,95.20
2018-08-10T00:56:32.125Z,97.80
2018-08-10T00:59:00.546Z,98.50
2018-08-10T01:01:28.732Z,98.30
2018-08-10T01:03:56.948Z,98.50
2018-08-10T01:06:25.156Z,97.30
2018-08-10T01:08:53.307Z,96.70
2018-08-10T01:11:21.540Z,96.60
2018-08-10T01:13:49.696Z,97.40
2018-08-10T01:16:17.869Z,97.50
2018-08-10T01:18:46.089Z,96.60
2018-08-10T01:21:14.350Z,95.70
2018-08-10T01:23:42.562Z,96.60
2018-08-10T01:26:10.888Z,95.60
2018-08-10T01:28:39.061Z,95.80
2018-08-10T01:31:07.337Z,95.60
2018-08-10T01:33:35.548Z,95.50
2018-08-10T01:36:03.920Z,95.30
2018-08-10T01:38:32.170Z,95.80
2018-08-10T01:41:00.344Z,95.80
2018-08-10T01:43:28.520Z,95.40
2018-08-10T01:45:56.694Z,95.90
2018-08-10T01:48:24.881Z,95.90
2018-08-10T01:50:53.060Z,95.90
2018-08-10T01:53:21.224Z,96.50
2018-08-10T01:55:49.413Z,96.20
2018-08-10T01:58:17.588Z,95.80
2018-08-10T02:00:45.797Z,95.70
2018-08-10T02:03:14.021Z,95.40
2018-08-10T02:05:42.167Z,95.50
2018-08-10T02:08:10.416Z,95.70
2018-08-10T02:10:38.581Z,97.00
2018-08-10T02:13:06.779Z,96.20
2018-08-10T02:15:34.959Z,95.70
2018-08-10T02:18:03.216Z,96.20
2018-08-10T02:20:31.425Z,96.40
2018-08-10T02:22:59.611Z,96.10
2018-08-10T02:25:27.996Z,95.40
2018-08-10T02:27:56.301Z,95.80
2018-08-10T02:30:24.541Z,95.70
2018-08-10T02:32:52.742Z,95.00
2018-08-10T02:35:21.016Z,95.90
2018-08-10T02:37:49.206Z,96.40
2018-08-10T02:40:21.472Z,96.20
2018-08-10T02:42:50.484Z,96.00
2018-08-10T02:45:18.940Z,95.90
2018-08-10T02:47:47.772Z,96.20
2018-08-10T02:50:16.044Z,95.00
2018-08-10T02:52:44.520Z,96.50
2018-08-10T02:55:13.709Z,95.80
2018-08-10T02:57:42.220Z,96.20
2018-08-10T03:00:12.388Z,95.60
2018-08-10T03:02:40.980Z,96.40
2018-08-10T03:05:09.853Z,96.50
2018-08-10T03:07:38.247Z,96.90
2018-08-10T03:10:07.657Z,97.00
2018-08-10T03:12:35.923Z,95.90
2018-08-10T03:15:05.463Z,96.30
2018-08-10T03:17:33.633Z,96.20
2018-08-10T03:20:01.925Z,97.00
2018-08-10T03:22:30.174Z,95.70
2018-08-10T03:24:58.460Z,96.20
2018-08-10T03:27:26.663Z,96.20
2018-08-10T03:29:54.804Z,96.10
2018-08-10T03:32:23.039Z,96.60
2018-08-10T03:34:51.192Z,96.70
2018-08-10T03:37:19.423Z,96.60
2018-08-10T03:39:47.624Z,96.90
2018-08-10T03:42:15.836Z,97.30
2018-08-10T03:44:44.303Z,97.90
2018-08-10T03:47:12.513Z,96.90
2018-08-10T03:49:40.682Z,96.70
2018-08-10T03:52:08.936Z,96.40
2018-08-10T03:54:37.104Z,96.20
2018-08-10T03:57:05.498Z,96.20
2018-08-10T03:59:33.704Z,96.20
2018-08-10T04:02:01.955Z,95.80
2018-08-10T04:04:30.165Z,95.30
2018-08-10T04:06:58.412Z,94.90
2018-08-10T04:09:26.669Z,95.10
2018-08-10T04:11:54.840Z,94.90
2018-08-10T04:14:23.080Z,95.50
2018-08-10T04:16:51.234Z,96.00
2018-08-10T04:19:19.441Z,95.60
2018-08-10T04:21:47.685Z,96.50
2018-08-10T04:24:15.831Z,95.80
2018-08-10T04:26:44.032Z,96.20
2018-08-10T04:29:12.216Z,95.80
2018-08-10T04:31:40.488Z,95.50
2018-08-10T04:34:08.665Z,95.60
2018-08-10T04:36:36.877Z,96.20
2018-08-10T04:39:08.972Z,96.00
2018-08-10T04:41:37.196Z,95.90
2018-08-10T04:44:05.409Z,95.20
2018-08-10T04:46:33.608Z,96.20
2018-08-10T04:49:01.781Z,95.80
2018-08-10T04:51:30.048Z,95.70
2018-08-10T04:53:58.276Z,95.90
2018-08-10T04:56:26.461Z,96.00
2018-08-10T04:58:54.730Z,95.50
2018-08-10T05:01:22.928Z,95.60
2018-08-10T05:03:51.193Z,95.50
2018-08-10T05:06:19.358Z,95.30
2018-08-10T05:08:47.561Z,95.70
2018-08-10T05:11:15.713Z,95.10
2018-08-10T05:13:43.944Z,95.50
2018-08-10T05:16:12.120Z,96.10
2018-08-10T05:18:40.360Z,95.60
2018-08-10T05:21:08.561Z,95.80
2018-08-10T05:23:36.786Z,96.00
2018-08-10T05:26:05.273Z,96.00
2018-08-10T05:28:33.440Z,96.20
2018-08-10T05:31:01.944Z,96.00
2018-08-10T05:33:30.327Z,95.80
2018-08-10T05:35:58.581Z,95.30
2018-08-10T05:38:26.856Z,96.10
2018-08-10T05:40:55.052Z,96.20
2018-08-10T05:43:23.259Z,95.50
2018-08-10T05:45:51.939Z,95.80
2018-08-10T05:48:20.128Z,96.00
2018-08-10T05:50:48.364Z,95.80
2018-08-10T05:53:16.513Z,96.60
2018-08-10T05:55:44.680Z,94.40
2018-08-10T05:58:12.960Z,93.90
2018-08-10T06:00:41.120Z,93.50
2018-08-10T06:03:09.352Z,94.20
2018-08-10T06:05:37.512Z,94.30
2018-08-10T06:08:05.825Z,94.90
2018-08-10T06:10:34.037Z,95.70
2018-08-10T06:13:02.215Z,96.20
2018-08-10T06:15:30.549Z,96.30
2018-08-10T06:17:59.161Z,96.60
2018-08-10T06:20:27.388Z,97.70
2018-08-10T06:22:55.636Z,98.50
2018-08-10T06:25:23.804Z,98.20
2018-08-10T06:27:51.967Z,97.10
2018-08-10T06:30:20.173Z,97.90
2018-08-10T06:32:48.313Z,96.90
2018-08-10T06:35:16.509Z,96.90
2018-08-10T06:37:44.685Z,96.90
2018-08-10T06:40:12.877Z,97.60
2018-08-10T06:42:41.053Z,98.50
2018-08-10T06:45:09.258Z,97.20
2018-08-10T06:47:37.949Z,98.20
2018-08-10T06:50:06.623Z,98.50
2018-08-10T06:52:35.564Z,98.50
2018-08-10T06:55:04.030Z,98.10
2018-08-10T06:57:32.201Z,98.20
2018-08-10T07:00:00.411Z,98.10
2018-08-10T07:02:28.610Z,97.30
2018-08-10T07:04:56.840Z,98.50
2018-08-10T07:07:25.145Z,98.50
2018-08-10T07:09:53.304Z,98.50
2018-08-10T07:12:21.516Z,98.50
2018-08-10T07:14:49.691Z,98.40
2018-08-10T07:17:17.855Z,98.50
2018-08-10T07:19:46.037Z,98.50
2018-08-10T07:22:14.255Z,98.50
2018-08-10T07:24:42.406Z,98.50
2018-08-10T07:27:10.618Z,97.20
2018-08-10T07:29:38.806Z,97.70
2018-08-10T07:32:07.006Z,98.20
2018-08-10T07:34:35.209Z,97.20
2018-08-10T07:37:03.429Z,98.50
2018-08-10T07:39:31.621Z,98.50
2018-08-10T07:41:59.820Z,98.50
2018-08-10T07:44:28.017Z,98.50
2018-08-10T07:46:56.173Z,98.50
2018-08-10T07:49:24.404Z,98.50
2018-08-10T07:51:52.568Z,96.90
2018-08-10T07:54:20.769Z,94.30
2018-08-10T07:56:48.985Z,93.30
2018-08-10T07:59:17.158Z,94.10
2018-08-10T08:01:45.416Z,95.10
2018-08-10T08:04:13.576Z,94.90
2018-08-10T08:06:41.788Z,94.70
2018-08-10T08:09:11.896Z,94.90
2018-08-10T08:11:40.064Z,93.80
2018-08-10T08:14:08.392Z,95.70
2018-08-10T08:16:36.795Z,95.30
2018-08-10T08:19:05.047Z,96.10
2018-08-10T08:21:33.233Z,94.40
2018-08-10T08:24:01.524Z,95.80
2018-08-10T08:26:29.674Z,95.50
2018-08-10T08:28:57.910Z,93.30
2018-08-10T08:31:26.220Z,95.80
2018-08-10T08:34:02.233Z,96.40
2018-08-10T08:36:30.453Z,96.50
2018-08-10T08:39:20.696Z,95.10
2018-08-10T08:41:48.985Z,95.70
2018-08-10T08:44:30.904Z,96.60
2018-08-10T08:46:59.080Z,96.00
2018-08-10T08:49:27.264Z,95.60
2018-08-10T08:51:55.501Z,94.60
2018-08-10T08:55:30.479Z,94.60
2018-08-10T08:57:58.857Z,95.80
2018-08-10T09:00:27.206Z,94.40
2018-08-10T09:02:55.352Z,95.10
2018-08-10T09:05:23.753Z,96.40
2018-08-10T09:07:51.931Z,95.90
2018-08-10T09:10:20.574Z,94.00
2018-08-10T09:12:48.764Z,92.80
2018-08-10T09:15:18.472Z,94.40
2018-08-10T09:17:46.787Z,94.40
2018-08-10T09:20:15.109Z,92.10
2018-08-10T09:22:43.322Z,92.10
2018-08-10T09:25:14.133Z,93.00
2018-08-10T09:27:42.289Z,92.70
2018-08-10T09:30:12.269Z,92.60
2018-08-10T09:32:40.993Z,93.40
2018-08-10T09:35:10.001Z,93.40
2018-08-10T09:37:38.334Z,91.30
2018-08-10T09:40:11.495Z,91.40
2018-08-10T09:42:39.809Z,93.50
2018-08-10T09:45:09.177Z,91.40
2018-08-10T09:47:37.424Z,91.50
2018-08-10T09:50:06.623Z,91.40
2018-08-10T09:52:34.833Z,92.70
2018-08-10T09:55:20.281Z,91.70
2018-08-10T09:57:49.716Z,94.00
2018-08-10T10:00:23.316Z,93.10
2018-08-10T10:02:58.795Z,92.10
2018-08-10T10:05:27.160Z,92.50
2018-08-10T10:07:55.728Z,92.40
2018-08-10T10:10:24.608Z,93.10
2018-08-10T10:12:53.227Z,92.00
2018-08-10T10:15:21.895Z,93.00
2018-08-10T10:17:50.252Z,90.20
2018-08-10T10:20:18.452Z,90.20
2018-08-10T10:22:47.603Z,91.30
2018-08-10T10:25:15.805Z,90.00
2018-08-10T10:27:44.294Z,91.20
2018-08-10T10:30:12.508Z,89.90
2018-08-10T10:32:40.707Z,94.20
2018-08-10T10:35:08.975Z,89.80
2018-08-10T10:37:37.209Z,89.30
2018-08-10T10:40:06.740Z,88.70
2018-08-10T10:42:35.008Z,89.50
2018-08-10T10:45:03.833Z,88.70
2018-08-10T10:47:32.021Z,90.90
2018-08-10T10:50:00.357Z,90.80
2018-08-10T10:52:28.573Z,90.90
2018-08-10T10:54:56.735Z,90.50
2018-08-10T10:57:24.968Z,88.40
2018-08-10T10:59:53.152Z,88.50
2018-08-10T11:02:21.365Z,89.00
2018-08-10T11:04:49.556Z,89.50
2018-08-10T11:07:17.800Z,91.40
2018-08-10T11:09:45.991Z,91.10
2018-08-10T11:12:14.280Z,89.50
2018-08-10T11:14:42.517Z,90.30
2018-08-10T11:17:10.687Z,90.00
2018-08-10T11:19:38.954Z,89.80
2018-08-10T11:22:07.178Z,90.70
2018-08-10T11:24:35.407Z,89.40
2018-08-10T11:27:03.653Z,89.10
2018-08-10T11:29:31.855Z,89.10
2018-08-10T11:32:00.086Z,87.30
2018-08-10T11:34:28.327Z,87.50
2018-08-10T11:36:56.484Z,87.30
2018-08-10T11:39:24.685Z,87.80
2018-08-10T11:41:52.877Z,88.60
2018-08-10T11:44:21.172Z,88.50
2018-08-10T11:46:49.365Z,87.00
2018-08-10T11:49:17.529Z,87.60
2018-08-10T11:51:45.728Z,88.00
2018-08-10T11:54:13.905Z,87.70
2018-08-10T11:56:42.088Z,87.50
2018-08-10T11:59:10.336Z,91.20
2018-08-10T12:01:38.497Z,87.60
2018-08-10T12:04:06.713Z,86.90
2018-08-10T12:06:34.875Z,86.00
2018-08-10T12:09:04.291Z,86.80
2018-08-10T12:11:32.441Z,86.80
2018-08-10T12:14:00.732Z,85.80
2018-08-10T12:16:28.949Z,84.80
2018-08-10T12:18:57.133Z,85.20
2018-08-10T12:21:25.330Z,86.50
2018-08-10T12:23:53.504Z,87.20
2018-08-10T12:26:21.844Z,86.20
2018-08-10T12:28:50.011Z,85.90
2018-08-10T12:31:18.205Z,85.00
2018-08-10T12:33:46.355Z,83.90
2018-08-10T12:36:14.536Z,84.20
2018-08-10T12:38:42.725Z,83.50
2018-08-10T12:41:10.948Z,83.20
2018-08-10T12:43:39.160Z,83.40
2018-08-10T12:46:07.477Z,85.60
2018-08-10T12:48:35.721Z,86.40
2018-08-10T12:51:03.981Z,87.10
2018-08-10T12:53:32.256Z,88.20
2018-08-10T12:56:00.693Z,87.90
2018-08-10T12:58:28.884Z,89.60
2018-08-10T13:00:57.053Z,90.40
2018-08-10T13:03:25.360Z,87.30
2018-08-10T13:05:53.493Z,88.20
2018-08-10T13:08:21.689Z,88.00
2018-08-10T13:10:49.981Z,88.80
2018-08-10T13:13:18.133Z,87.60
2018-08-10T13:15:46.348Z,87.30
2018-08-10T13:18:14.501Z,87.20
2018-08-10T13:20:42.735Z,87.80
2018-08-10T13:23:10.993Z,87.10
2018-08-10T13:25:39.156Z,87.70
2018-08-10T13:28:07.625Z,88.30
2018-08-10T13:30:35.812Z,88.70
2018-08-10T13:33:04.201Z,87.90
2018-08-10T13:35:32.477Z,88.40
2018-08-10T13:38:00.684Z,89.10
2018-08-10T13:40:28.928Z,89.60
2018-08-10T13:42:57.187Z,89.00
2018-08-10T13:45:25.468Z,89.60
2018-08-10T13:47:53.792Z,89.90
2018-08-10T13:50:22.144Z,88.40
2018-08-10T13:52:50.353Z,88.00
2018-08-10T13:55:19.445Z,88.10
2018-08-10T13:57:48.625Z,87.20
2018-08-10T14:00:23.188Z,87.30
2018-08-10T14:02:53.281Z,86.80
2018-08-10T14:05:22.630Z,87.80
2018-08-10T14:07:51.596Z,87.20
2018-08-10T14:10:19.833Z,88.20
2018-08-10T14:12:48.148Z,88.50
2018-08-10T14:15:16.400Z,88.10
2018-08-10T14:17:44.736Z,88.10
2018-08-10T14:20:13.048Z,88.00
2018-08-10T14:22:41.352Z,87.80
2018-08-10T14:25:10.739Z,87.80
2018-08-10T14:27:39.034Z,88.20
2018-08-10T14:30:10.221Z,87.80
2018-08-10T14:32:38.712Z,88.20
2018-08-10T14:35:07.281Z,89.10
2018-08-10T14:37:36.625Z,89.30
2018-08-10T14:40:05.724Z,89.70
2018-08-10T14:42:34.092Z,89.30
2018-08-10T14:45:02.437Z,88.10
2018-08-10T14:47:30.815Z,90.00
2018-08-10T14:49:59.312Z,88.20
2018-08-10T14:52:27.479Z,87.20
2018-08-10T14:54:55.681Z,88.30
2018-08-10T14:57:23.853Z,89.00
2018-08-10T14:59:52.045Z,88.70
2018-08-10T15:02:20.218Z,88.30
2018-08-10T15:04:48.404Z,89.00
2018-08-10T15:07:16.651Z,88.90
2018-08-10T15:09:44.846Z,88.20
2018-08-10T15:12:13.167Z,88.70
2018-08-10T15:14:41.324Z,90.00
2018-08-10T15:17:09.549Z,87.80
2018-08-10T15:19:37.728Z,88.50
2018-08-10T15:22:05.997Z,89.50
2018-08-10T15:24:34.196Z,90.70
2018-08-10T15:27:02.524Z,90.40
2018-08-10T15:29:31.309Z,90.00
2018-08-10T15:31:59.508Z,90.20
2018-08-10T15:34:27.739Z,89.70
2018-08-10T15:36:55.921Z,90.60
2018-08-10T15:39:24.097Z,90.80
2018-08-10T15:41:52.284Z,91.00
2018-08-10T15:44:23.353Z,91.10
2018-08-10T15:46:51.626Z,92.00
2018-08-10T15:49:19.860Z,91.00
2018-08-10T15:51:48.062Z,92.00
2018-08-10T15:54:16.238Z,91.90
2018-08-10T15:56:44.534Z,91.50
2018-08-10T15:59:12.740Z,91.90
2018-08-10T16:01:40.947Z,92.30
2018-08-10T16:04:09.148Z,92.80
2018-08-10T16:06:37.445Z,92.40
2018-08-10T16:09:08.914Z,92.20
2018-08-10T16:11:37.164Z,92.30
2018-08-10T16:14:05.445Z,92.30
2018-08-10T16:16:33.632Z,93.20
2018-08-10T16:19:01.793Z,92.40
2018-08-10T16:21:30.924Z,92.40
2018-08-10T16:23:59.196Z,92.80
2018-08-10T16:26:27.353Z,92.90
2018-08-10T16:28:55.604Z,93.10
2018-08-10T16:31:23.888Z,93.20
2018-08-10T16:33:52.141Z,93.10
2018-08-10T16:36:20.510Z,93.30
2018-08-10T16:38:48.773Z,93.20
2018-08-10T16:41:17.108Z,92.50
2018-08-10T16:43:45.344Z,93.00
2018-08-10T16:46:13.607Z,92.40
2018-08-10T16:48:41.840Z,92.10
2018-08-10T16:51:10.084Z,92.60
2018-08-10T16:53:38.392Z,92.40
2018-08-10T16:56:06.592Z,92.30
2018-08-10T16:58:34.796Z,92.10
2018-08-10T17:01:03.176Z,92.00
2018-08-10T17:03:31.657Z,92.30
2018-08-10T17:05:59.877Z,92.90
2018-08-10T17:08:28.028Z,92.80
2018-08-10T17:10:56.258Z,93.40
2018-08-10T17:13:24.456Z,93.10
2018-08-10T17:15:52.708Z,93.10
2018-08-10T17:18:20.911Z,93.60
2018-08-10T17:20:49.085Z,93.70
2018-08-10T17:23:17.292Z,93.70
2018-08-10T17:25:45.615Z,93.90
2018-08-10T17:28:13.848Z,93.40
2018-08-10T17:30:42.071Z,93.10
2018-08-10T17:33:10.291Z,93.70
2018-08-10T17:35:38.572Z,93.70
2018-08-10T17:38:07.340Z,93.70
2018-08-10T17:40:35.537Z,93.40
2018-08-10T17:43:03.848Z,93.90
2018-08-10T17:45:32.033Z,94.20
2018-08-10T17:48:00.221Z,94.50
2018-08-10T17:50:28.575Z,93.90
2018-08-10T17:52:56.826Z,94.10
2018-08-10T17:55:25.001Z,93.50
2018-08-10T17:57:53.247Z,93.90
2018-08-10T18:00:25.132Z,94.60
2018-08-10T18:02:53.410Z,94.10
2018-08-10T18:05:21.654Z,94.10
2018-08-10T18:07:49.938Z,94.40
2018-08-10T18:10:18.940Z,94.50
2018-08-10T18:12:47.308Z,94.20
2018-08-10T18:15:17.912Z,93.90
2018-08-10T18:17:46.638Z,94.50
2018-08-10T18:20:16.975Z,95.00
2018-08-10T18:22:48.352Z,95.30
2018-08-10T18:25:17.662Z,95.20
2018-08-10T18:27:45.852Z,95.70
2018-08-10T18:30:19.972Z,95.20
2018-08-10T18:32:48.528Z,95.40
2018-08-10T18:35:16.837Z,95.50
2018-08-10T18:37:45.812Z,96.10
2018-08-10T18:40:14.854Z,95.90
2018-08-10T18:42:44.172Z,96.10
2018-08-10T18:45:14.248Z,95.90
2018-08-10T18:47:42.595Z,96.00
2018-08-10T18:50:12.593Z,96.10
2018-08-10T18:52:41.021Z,96.00
2018-08-10T18:55:14.100Z,95.90
2018-08-10T18:57:42.384Z,96.10
2018-08-10T19:00:16.688Z,96.10
2018-08-10T19:02:45.213Z,96.10
2018-08-10T19:05:14.731Z,96.20
2018-08-10T19:07:43.848Z,95.80
2018-08-10T19:10:14.039Z,96.50
2018-08-10T19:12:42.217Z,96.20
2018-08-10T19:15:12.193Z,96.80
2018-08-10T19:17:40.542Z,97.00
2018-08-10T19:20:09.689Z,97.00
2018-08-10T19:22:38.076Z,96.80
2018-08-10T19:25:07.961Z,97.50
2018-08-10T19:27:36.560Z,97.40
2018-08-10T19:30:07.519Z,97.30
2018-08-10T19:32:35.736Z,97.70
2018-08-10T19:35:04.217Z,97.70
2018-08-10T19:37:32.488Z,97.60
2018-08-10T19:40:00.669Z,98.00
2018-08-10T19:42:29.007Z,97.80
2018-08-10T19:44:57.204Z,98.00
2018-08-10T19:47:25.375Z,97.90
2018-08-10T19:49:54.494Z,97.60
2018-08-10T19:52:22.741Z,97.60
2018-08-10T19:54:51.010Z,97.50
2018-08-10T19:57:19.256Z,97.50
2018-08-10T19:59:47.484Z,97.80
2018-08-10T20:02:15.864Z,98.00
2018-08-10T20:04:44.059Z,98.20
2018-08-10T20:07:12.303Z,98.30
2018-08-10T20:09:40.527Z,98.40
2018-08-10T20:12:08.808Z,98.30
2018-08-10T20:14:37.089Z,98.20
2018-08-10T20:17:05.316Z,98.30
2018-08-10T20:19:33.565Z,98.50
2018-08-10T20:22:01.828Z,98.20
2018-08-10T20:24:30.082Z,98.30
2018-08-10T20:26:58.312Z,98.00
2018-08-10T20:29:26.497Z,98.20
2018-08-10T20:31:54.749Z,98.40
2018-08-10T20:34:23.016Z,97.90
2018-08-10T20:36:51.252Z,97.70
2018-08-10T20:39:20.025Z,98.00
2018-08-10T20:41:48.237Z,98.30
2018-08-10T20:44:16.512Z,98.30
2018-08-10T20:46:44.778Z,97.90
2018-08-10T20:49:13.028Z,98.00
2018-08-10T20:51:41.297Z,98.10
2018-08-10T20:54:09.502Z,97.90
2018-08-10T20:56:37.739Z,97.80
2018-08-10T20:59:05.964Z,97.80
2018-08-10T21:01:34.241Z,97.50
2018-08-10T21:04:02.452Z,97.10
2018-08-10T21:06:30.773Z,97.00
2018-08-10T21:08:59.144Z,96.70
2018-08-10T21:11:27.349Z,96.70
2018-08-10T21:13:55.542Z,96.30
2018-08-10T21:16:23.717Z,97.10
2018-08-10T21:18:51.924Z,97.30
2018-08-10T21:21:20.127Z,98.20
2018-08-10T21:23:48.375Z,98.30
2018-08-10T21:26:16.652Z,98.40
2018-08-10T21:28:44.814Z,97.60
2018-08-10T21:31:13.077Z,97.50
2018-08-10T21:33:41.309Z,97.30
2018-08-10T21:36:09.571Z,97.30
2018-08-10T21:38:37.831Z,97.30
2018-08-10T21:41:06.068Z,97.70
2018-08-10T21:43:34.320Z,97.60
2018-08-10T21:46:02.580Z,97.50
2018-08-10T21:48:30.795Z,96.70
2018-08-10T21:50:59.069Z,97.20
2018-08-10T21:53:27.298Z,96.90
2018-08-10T21:55:55.556Z,97.60
2018-08-10T21:58:23.780Z,98.10
2018-08-10T22:00:58.538Z,98.30
2018-08-10T22:03:26.827Z,98.30
2018-08-10T22:05:55.152Z,98.00
2018-08-10T22:08:23.916Z,97.80
2018-08-10T22:10:52.148Z,97.40
2018-08-10T22:13:26.012Z,97.60
2018-08-10T22:15:59.936Z,97.90
2018-08-10T22:18:33.689Z,98.50
2018-08-10T22:21:01.887Z,98.50
2018-08-10T22:23:30.101Z,98.50
2018-08-10T22:25:59.108Z,98.20
2018-08-10T22:28:27.460Z,98.50
2018-08-10T22:30:55.726Z,98.50
2018-08-10T22:33:23.992Z,98.50
2018-08-10T22:35:52.177Z,98.20
2018-08-10T22:38:20.412Z,98.00
2018-08-10T22:40:48.605Z,98.30
2018-08-10T22:43:16.893Z,98.50
2018-08-10T22:45:45.141Z,98.20
2018-08-10T22:48:13.387Z,98.50
2018-08-10T22:50:41.651Z,98.50
2018-08-10T22:53:09.994Z,98.50
2018-08-10T22:55:38.240Z,98.50
2018-08-10T22:58:06.452Z,98.20
2018-08-10T23:00:34.757Z,98.10
2018-08-10T23:03:03.076Z,97.60
2018-08-10T23:05:31.367Z,97.90
2018-08-10T23:07:59.674Z,98.50
2018-08-10T23:10:27.872Z,98.50
2018-08-10T23:12:56.116Z,98.50
2018-08-10T23:15:24.336Z,98.50
2018-08-10T23:17:52.516Z,98.50
2018-08-10T23:20:20.760Z,98.50
2018-08-10T23:22:49.133Z,98.50
2018-08-10T23:25:17.385Z,98.50
2018-08-10T23:27:45.550Z,98.50
2018-08-10T23:30:15.651Z,98.40
2018-08-10T23:32:44.520Z,98.50
2018-08-10T23:35:12.799Z,98.10
2018-08-10T23:37:41.175Z,98.40
2018-08-10T23:40:12.790Z,98.50
2018-08-10T23:42:41.086Z,98.50
2018-08-10T23:45:11.180Z,98.50
2018-08-10T23:47:40.008Z,98.30
2018-08-10T23:50:10.929Z,98.50
2018-08-10T23:52:39.456Z,98.50
2018-08-10T23:55:08.366Z,98.50
2018-08-10T23:57:37.267Z,98.50
